Pagina principală
METAR-TAF:

METAR-TAF

Aeroporturi :

Rio de Janeiro, Rio de Janeiro, Brazilia

Latitudine: 22-54S, longitudine: 043-10W, elevație: 3 m

Observații meteo curente

Raportul a fost făcut în urmă cu 34 de minute, la 14:00 UTC
Vânt 6 kt de la Nord
Temperatură 26°C
Umiditate 70%
Presiune 1020 hPa
Vizibilitate de 10 km sau mai mult
nu există nori sub 1.500 m și nici cumulonimbus

METAR: SBRJ 151400Z 01006KT CAVOK 26/20 Q1020

Ora: 11:34 (14:34 UTC)

Prognoză

Raportul a fost făcut în urmă cu 6 ore și 34 de minute, la 08:00 UTC
Prognoză valabilă de la 15 ora 12 UTC la 15 ora 24 UTC
Vânt 5 kt de la Nord/Nord-est
Vizibilitate de 10 km sau mai mult
nu există nori sub 1.500 m și nici cumulonimbus
Devenind
de la 15 ora 19 UTC la 15 ora 21 UTC
Vânt 5 kt de la Sud/Sud-vest

TAF: SBRJ 150800Z 1512/1524 03005KT CAVOK TX29/1517Z TN25/1524Z BECMG 1519/1521 21005KT RMK PGY

Observații și prognoze meteo pentru peste 4.000 de aeroporturi (rapoarte METAR și TAF).

Stațiile disponibile sunt reprezentate pe hartă prin puncte galbene și roșii.

Țineți indicatorul mouse-ului pe punctul dorit pentru a vedea denumirea stației.

Apoi, faceți clic pentru a vedea observațiile și prognozele meteorologice.

Pentru a schimba harta: Pentru mărire, faceți clic pe butoanele verzi cu cruce neagră; pentru micșorare, pe butonul verde cu o liniuță; pentru hărți învecinate, pe săgețile verzi.


METAR-TAF: